sensor_id;sensor_type;location;lat;lon;timestamp;pressure;altitude;pressure_sealevel;temperature;humidity
71567;BME280;59403;47.456;19.120;2023-05-23T00:00:09;100011.38;;;16.54;100.00
71567;BME280;59403;47.456;19.120;2023-05-23T00:02:39;100016.47;;;16.42;100.00
71567;BME280;59403;47.456;19.120;2023-05-23T00:05:06;100013.66;;;16.50;100.00
71567;BME280;59403;47.456;19.120;2023-05-23T00:07:36;100015.91;;;16.47;100.00
71567;BME280;59403;47.456;19.120;2023-05-23T00:10:04;100014.66;;;16.49;100.00
71567;BME280;59403;47.456;19.120;2023-05-23T00:12:31;100013.44;;;16.52;100.00
71567;BME280;59403;47.456;19.120;2023-05-23T00:14:58;100012.19;;;16.54;100.00
71567;BME280;59403;47.456;19.120;2023-05-23T00:17:27;100010.97;;;16.50;100.00
71567;BME280;59403;47.456;19.120;2023-05-23T00:19:54;100003.50;;;16.39;100.00
71567;BME280;59403;47.456;19.120;2023-05-23T00:22:21;100004.75;;;16.43;100.00
71567;BME280;59403;47.456;19.120;2023-05-23T00:24:48;100002.87;;;16.44;100.00
71567;BME280;59403;47.456;19.120;2023-05-23T00:27:15;100004.38;;;16.46;100.00
71567;BME280;59403;47.456;19.120;2023-05-23T00:29:42;99995.72;;;16.38;100.00
71567;BME280;59403;47.456;19.120;2023-05-23T00:32:09;99992.81;;;16.26;100.00
71567;BME280;59403;47.456;19.120;2023-05-23T00:34:38;99999.38;;;16.24;100.00
71567;BME280;59403;47.456;19.120;2023-05-23T00:37:05;99988.06;;;16.28;100.00
71567;BME280;59403;47.456;19.120;2023-05-23T00:39:32;100001.47;;;16.35;100.00
71567;BME280;59403;47.456;19.120;2023-05-23T00:42:03;100003.94;;;16.36;100.00
71567;BME280;59403;47.456;19.120;2023-05-23T00:44:30;100000.84;;;16.33;100.00
71567;BME280;59403;47.456;19.120;2023-05-23T00:46:58;100007.19;;;16.25;100.00
71567;BME280;59403;47.456;19.120;2023-05-23T00:49:25;99993.00;;;16.12;100.00
71567;BME280;59403;47.456;19.120;2023-05-23T00:51:54;100010.06;;;16.17;100.00
71567;BME280;59403;47.456;19.120;2023-05-23T00:54:25;100013.13;;;16.14;100.00
71567;BME280;59403;47.456;19.120;2023-05-23T00:56:53;100007.97;;;16.13;100.00
71567;BME280;59403;47.456;19.120;2023-05-23T00:59:20;100004.94;;;16.16;100.00
71567;BME280;59403;47.456;19.120;2023-05-23T01:04:39;100007.97;;;16.13;100.00
71567;BME280;59403;47.456;19.120;2023-05-23T01:07:09;100004.66;;;16.04;100.00
71567;BME280;59403;47.456;19.120;2023-05-23T01:09:37;99996.44;;;16.06;100.00
71567;BME280;59403;47.456;19.120;2023-05-23T01:12:16;99994.81;;;16.05;100.00
71567;BME280;59403;47.456;19.120;2023-05-23T01:14:50;99998.53;;;16.04;100.00
71567;BME280;59403;47.456;19.120;2023-05-23T01:17:25;99997.28;;;16.06;100.00
71567;BME280;59403;47.456;19.120;2023-05-23T01:19:58;100003.44;;;16.00;100.00
71567;BME280;59403;47.456;19.120;2023-05-23T01:22:37;100002.63;;;16.00;100.00
71567;BME280;59403;47.456;19.120;2023-05-23T01:25:10;100001.12;;;15.77;100.00
71567;BME280;59403;47.456;19.120;2023-05-23T01:27:48;100004.62;;;15.84;100.00
71567;BME280;59403;47.456;19.120;2023-05-23T01:30:18;100003.16;;;15.82;100.00
71567;BME280;59403;47.456;19.120;2023-05-23T01:32:47;100009.28;;;15.76;100.00
71567;BME280;59403;47.456;19.120;2023-05-23T01:35:19;99998.44;;;15.77;100.00
71567;BME280;59403;47.456;19.120;2023-05-23T01:37:48;100004.62;;;15.84;100.00
71567;BME280;59403;47.456;19.120;2023-05-23T01:40:14;99996.78;;;15.83;100.00
71567;BME280;59403;47.456;19.120;2023-05-23T01:42:41;99993.69;;;15.73;100.00
71567;BME280;59403;47.456;19.120;2023-05-23T01:45:11;99995.72;;;15.71;100.00
71567;BME280;59403;47.456;19.120;2023-05-23T01:47:39;99991.84;;;15.73;100.00
71567;BME280;59403;47.456;19.120;2023-05-23T01:50:07;99988.13;;;15.74;100.00
71567;BME280;59403;47.456;19.120;2023-05-23T01:52:35;99989.81;;;15.75;100.00
71567;BME280;59403;47.456;19.120;2023-05-23T01:55:04;99990.81;;;15.74;100.00
71567;BME280;59403;47.456;19.120;2023-05-23T01:57:35;99987.91;;;15.69;100.00
71567;BME280;59403;47.456;19.120;2023-05-23T02:00:02;99995.50;;;15.66;100.00
71567;BME280;59403;47.456;19.120;2023-05-23T02:02:32;99989.75;;;15.69;100.00
71567;BME280;59403;47.456;19.120;2023-05-23T02:04:59;99993.66;;;15.60;100.00
71567;BME280;59403;47.456;19.120;2023-05-23T02:07:26;99983.53;;;15.55;100.00
71567;BME280;59403;47.456;19.120;2023-05-23T02:09:53;99983.53;;;15.55;100.00
71567;BME280;59403;47.456;19.120;2023-05-23T02:12:20;99988.03;;;15.48;100.00
71567;BME280;59403;47.456;19.120;2023-05-23T02:14:50;99980.44;;;15.45;100.00
71567;BME280;59403;47.456;19.120;2023-05-23T02:17:17;99983.13;;;15.52;100.00
71567;BME280;59403;47.456;19.120;2023-05-23T02:19:47;99974.69;;;15.48;100.00
71567;BME280;59403;47.456;19.120;2023-05-23T02:22:14;99982.41;;;15.37;100.00
71567;BME280;59403;47.456;19.120;2023-05-23T02:24:41;99974.38;;;15.30;100.00
71567;BME280;59403;47.456;19.120;2023-05-23T02:27:08;99979.00;;;15.43;100.00
71567;BME280;59403;47.456;19.120;2023-05-23T02:29:35;99980.38;;;15.39;100.00
71567;BME280;59403;47.456;19.120;2023-05-23T02:32:02;99974.81;;;15.34;100.00
71567;BME280;59403;47.456;19.120;2023-05-23T02:34:30;99975.81;;;15.33;100.00
71567;BME280;59403;47.456;19.120;2023-05-23T02:36:58;99984.69;;;15.40;100.00
71567;BME280;59403;47.456;19.120;2023-05-23T02:39:26;99980.16;;;15.34;100.00
71567;BME280;59403;47.456;19.120;2023-05-23T02:41:53;99972.28;;;15.26;100.00
71567;BME280;59403;47.456;19.120;2023-05-23T02:44:19;99977.41;;;15.27;100.00
71567;BME280;59403;47.456;19.120;2023-05-23T02:46:46;99975.34;;;15.23;100.00
71567;BME280;59403;47.456;19.120;2023-05-23T02:49:13;99978.41;;;15.20;100.00
71567;BME280;59403;47.456;19.120;2023-05-23T02:51:40;99967.75;;;15.20;100.00
71567;BME280;59403;47.456;19.120;2023-05-23T02:54:08;99969.56;;;15.13;100.00
71567;BME280;59403;47.456;19.120;2023-05-23T02:56:35;99975.09;;;15.11;100.00
71567;BME280;59403;47.456;19.120;2023-05-23T02:59:01;99971.66;;;15.24;100.00
71567;BME280;59403;47.456;19.120;2023-05-23T03:01:28;99964.88;;;15.21;100.00
71567;BME280;59403;47.456;19.120;2023-05-23T03:03:55;99959.16;;;15.24;100.00
71567;BME280;59403;47.456;19.120;2023-05-23T03:06:23;99962.66;;;15.25;100.00
71567;BME280;59403;47.456;19.120;2023-05-23T03:08:52;99959.12;;;15.18;100.00
71567;BME280;59403;47.456;19.120;2023-05-23T03:11:20;99963.59;;;15.11;100.00
71567;BME280;59403;47.456;19.120;2023-05-23T03:13:47;99970.31;;;15.07;100.00
71567;BME280;59403;47.456;19.120;2023-05-23T03:16:14;99963.75;;;15.03;100.00
71567;BME280;59403;47.456;19.120;2023-05-23T03:18:41;99967.62;;;15.00;100.00
71567;BME280;59403;47.456;19.120;2023-05-23T03:21:07;99967.38;;;14.95;100.00
71567;BME280;59403;47.456;19.120;2023-05-23T03:23:34;99970.69;;;14.97;100.00
71567;BME280;59403;47.456;19.120;2023-05-23T03:26:02;99971.88;;;14.95;100.00
71567;BME280;59403;47.456;19.120;2023-05-23T03:28:32;99978.06;;;14.95;100.00
71567;BME280;59403;47.456;19.120;2023-05-23T03:30:59;99979.53;;;14.98;100.00
71567;BME280;59403;47.456;19.120;2023-05-23T03:33:26;99985.69;;;15.05;100.00
71567;BME280;59403;47.456;19.120;2023-05-23T03:35:53;99978.97;;;15.09;100.00
71567;BME280;59403;47.456;19.120;2023-05-23T03:38:21;99975.97;;;15.18;100.00
71567;BME280;59403;47.456;19.120;2023-05-23T03:40:47;99976.94;;;15.11;100.00
71567;BME280;59403;47.456;19.120;2023-05-23T03:43:14;99980.84;;;15.15;100.00
71567;BME280;59403;47.456;19.120;2023-05-23T03:45:42;99976.31;;;15.15;100.00
71567;BME280;59403;47.456;19.120;2023-05-23T03:48:09;99975.75;;;15.20;100.00
71567;BME280;59403;47.456;19.120;2023-05-23T03:50:36;99975.78;;;15.26;100.00
71567;BME280;59403;47.456;19.120;2023-05-23T03:53:03;99973.75;;;15.28;100.00
71567;BME280;59403;47.456;19.120;2023-05-23T03:55:31;99977.41;;;15.27;100.00
71567;BME280;59403;47.456;19.120;2023-05-23T03:57:59;99975.56;;;15.21;100.00
71567;BME280;59403;47.456;19.120;2023-05-23T04:00:26;99972.25;;;15.19;100.00
71567;BME280;59403;47.456;19.120;2023-05-23T04:02:54;99965.91;;;15.20;100.00
71567;BME280;59403;47.456;19.120;2023-05-23T04:05:21;99975.81;;;15.33;100.00
71567;BME280;59403;47.456;19.120;2023-05-23T04:07:48;99975.03;;;15.39;100.00
71567;BME280;59403;47.456;19.120;2023-05-23T04:10:16;99974.88;;;15.47;100.00
71567;BME280;59403;47.456;19.120;2023-05-23T04:12:42;99985.16;;;15.50;100.00
71567;BME280;59403;47.456;19.120;2023-05-23T04:15:10;99980.50;;;15.58;100.00
71567;BME280;59403;47.456;19.120;2023-05-23T04:17:36;99983.41;;;15.63;100.00
71567;BME280;59403;47.456;19.120;2023-05-23T04:20:07;99983.81;;;15.67;100.00
71567;BME280;59403;47.456;19.120;2023-05-23T04:22:35;99984.66;;;15.74;100.00
71567;BME280;59403;47.456;19.120;2023-05-23T04:25:02;99983.84;;;15.80;100.00
71567;BME280;59403;47.456;19.120;2023-05-23T04:27:29;99984.50;;;15.88;100.00
71567;BME280;59403;47.456;19.120;2023-05-23T04:29:55;99983.28;;;15.98;100.00
71567;BME280;59403;47.456;19.120;2023-05-23T04:32:25;99984.13;;;16.05;100.00
71567;BME280;59403;47.456;19.120;2023-05-23T04:34:51;99982.72;;;16.15;100.00
71567;BME280;59403;47.456;19.120;2023-05-23T04:37:20;99981.47;;;16.11;100.00
71567;BME280;59403;47.456;19.120;2023-05-23T04:39:50;99984.34;;;16.10;100.00
71567;BME280;59403;47.456;19.120;2023-05-23T04:42:17;99977.59;;;16.14;100.00
71567;BME280;59403;47.456;19.120;2023-05-23T04:44:49;99973.44;;;16.11;100.00
71567;BME280;59403;47.456;19.120;2023-05-23T04:47:15;99977.38;;;16.28;100.00
71567;BME280;59403;47.456;19.120;2023-05-23T04:49:43;99977.44;;;16.67;100.00
71567;BME280;59403;47.456;19.120;2023-05-23T04:52:10;99977.03;;;16.70;100.00
71567;BME280;59403;47.456;19.120;2023-05-23T04:54:39;99973.75;;;16.62;100.00
71567;BME280;59403;47.456;19.120;2023-05-23T04:57:09;99980.31;;;16.59;100.00
71567;BME280;59403;47.456;19.120;2023-05-23T04:59:36;99981.56;;;16.57;100.00
71567;BME280;59403;47.456;19.120;2023-05-23T05:02:04;99983.00;;;16.53;100.00
71567;BME280;59403;47.456;19.120;2023-05-23T05:04:32;99980.31;;;16.53;100.00
71567;BME280;59403;47.456;19.120;2023-05-23T05:06:59;99979.72;;;16.57;100.00
71567;BME280;59403;47.456;19.120;2023-05-23T05:09:28;99982.81;;;16.61;100.00
71567;BME280;59403;47.456;19.120;2023-05-23T05:11:56;99986.28;;;16.61;100.00
71567;BME280;59403;47.456;19.120;2023-05-23T05:14:24;99983.81;;;16.66;100.00
71567;BME280;59403;47.456;19.120;2023-05-23T05:16:51;99979.69;;;16.70;100.00
71567;BME280;59403;47.456;19.120;2023-05-23T05:19:19;99988.34;;;16.79;100.00
71567;BME280;59403;47.456;19.120;2023-05-23T05:21:46;99978.47;;;16.79;100.00
71567;BME280;59403;47.456;19.120;2023-05-23T05:24:13;99978.47;;;16.79;100.00
71567;BME280;59403;47.456;19.120;2023-05-23T05:26:40;99970.25;;;16.81;100.00
71567;BME280;59403;47.456;19.120;2023-05-23T05:29:08;99981.75;;;16.88;100.00
71567;BME280;59403;47.456;19.120;2023-05-23T05:31:35;99984.63;;;16.93;100.00
71567;BME280;59403;47.456;19.120;2023-05-23T05:34:02;99986.88;;;17.02;100.00
71567;BME280;59403;47.456;19.120;2023-05-23T05:36:29;99984.19;;;17.16;100.00
71567;BME280;59403;47.456;19.120;2023-05-23T05:38:57;99978.41;;;17.25;100.00
71567;BME280;59403;47.456;19.120;2023-05-23T05:41:24;99979.22;;;17.32;100.00
71567;BME280;59403;47.456;19.120;2023-05-23T05:43:51;99983.31;;;17.35;100.00
71567;BME280;59403;47.456;19.120;2023-05-23T05:46:19;99982.47;;;17.34;100.00
71567;BME280;59403;47.456;19.120;2023-05-23T05:48:46;99978.75;;;17.42;100.00
71567;BME280;59403;47.456;19.120;2023-05-23T05:51:13;99972.56;;;17.54;100.00
71567;BME280;59403;47.456;19.120;2023-05-23T05:53:40;99976.03;;;17.61;100.00
71567;BME280;59403;47.456;19.120;2023-05-23T05:56:07;99969.56;;;17.82;100.00
71567;BME280;59403;47.456;19.120;2023-05-23T05:58:34;99968.88;;;17.93;100.00
71567;BME280;59403;47.456;19.120;2023-05-23T06:01:01;99965.34;;;17.99;100.00
71567;BME280;59403;47.456;19.120;2023-05-23T06:03:31;99967.75;;;18.07;100.00
71567;BME280;59403;47.456;19.120;2023-05-23T06:05:58;99970.41;;;18.13;100.00
71567;BME280;59403;47.456;19.120;2023-05-23T06:08:25;99971.59;;;18.24;100.00
71567;BME280;59403;47.456;19.120;2023-05-23T06:10:52;99982.62;;;18.34;100.00
71567;BME280;59403;47.456;19.120;2023-05-23T06:13:19;99974.75;;;18.46;100.00
71567;BME280;59403;47.456;19.120;2023-05-23T06:15:46;99972.78;;;18.59;100.00
71567;BME280;59403;47.456;19.120;2023-05-23T06:18:13;99978.53;;;18.63;100.00
71567;BME280;59403;47.456;19.120;2023-05-23T06:20:41;99976.78;;;18.50;100.00
71567;BME280;59403;47.456;19.120;2023-05-23T06:23:08;99972.06;;;18.46;100.00
71567;BME280;59403;47.456;19.120;2023-05-23T06:25:35;99978.81;;;18.55;100.00
71567;BME280;59403;47.456;19.120;2023-05-23T06:28:02;99976.28;;;18.60;100.00
71567;BME280;59403;47.456;19.120;2023-05-23T06:30:28;99981.16;;;18.69;100.00
71567;BME280;59403;47.456;19.120;2023-05-23T06:32:55;99978.59;;;18.81;100.00
71567;BME280;59403;47.456;19.120;2023-05-23T06:35:23;99984.78;;;18.99;100.00
71567;BME280;59403;47.456;19.120;2023-05-23T06:37:51;99973.25;;;19.17;100.00
71567;BME280;59403;47.456;19.120;2023-05-23T06:40:18;99975.19;;;19.35;100.00
71567;BME280;59403;47.456;19.120;2023-05-23T06:42:45;99977.63;;;19.54;100.00
71567;BME280;59403;47.456;19.120;2023-05-23T06:45:12;99980.88;;;19.74;100.00
71567;BME280;59403;47.456;19.120;2023-05-23T06:47:39;99978.78;;;19.94;100.00
71567;BME280;59403;47.456;19.120;2023-05-23T06:50:08;99982.75;;;20.21;100.00
71567;BME280;59403;47.456;19.120;2023-05-23T06:52:35;99982.59;;;20.46;100.00
71567;BME280;59403;47.456;19.120;2023-05-23T06:55:05;99974.91;;;20.61;100.00
71567;BME280;59403;47.456;19.120;2023-05-23T06:57:31;99968.00;;;20.77;98.74
71567;BME280;59403;47.456;19.120;2023-05-23T06:59:58;99973.53;;;20.93;97.53
71567;BME280;59403;47.456;19.120;2023-05-23T07:02:26;99967.09;;;21.06;89.14
71567;BME280;59403;47.456;19.120;2023-05-23T07:04:52;99966.16;;;21.12;88.31
71567;BME280;59403;47.456;19.120;2023-05-23T07:07:19;99968.13;;;21.16;80.13
71567;BME280;59403;47.456;19.120;2023-05-23T07:09:46;99969.78;;;21.40;82.81
71567;BME280;59403;47.456;19.120;2023-05-23T07:12:14;99959.16;;;21.62;85.07
71567;BME280;59403;47.456;19.120;2023-05-23T07:14:41;99957.94;;;21.81;83.67
71567;BME280;59403;47.456;19.120;2023-05-23T07:17:08;99955.94;;;21.88;81.92
71567;BME280;59403;47.456;19.120;2023-05-23T07:19:36;99957.13;;;22.09;82.08
71567;BME280;59403;47.456;19.120;2023-05-23T07:22:03;99952.91;;;22.13;82.25
71567;BME280;59403;47.456;19.120;2023-05-23T07:24:30;99947.31;;;22.03;85.58
71567;BME280;59403;47.456;19.120;2023-05-23T07:26:56;99949.16;;;22.30;84.12
71567;BME280;59403;47.456;19.120;2023-05-23T07:29:25;99949.75;;;22.49;87.68
71567;BME280;59403;47.456;19.120;2023-05-23T07:31:52;99946.97;;;22.44;76.96
71567;BME280;59403;47.456;19.120;2023-05-23T07:34:19;99945.34;;;22.60;76.70
71567;BME280;59403;47.456;19.120;2023-05-23T07:36:46;99947.06;;;22.82;78.40
71567;BME280;59403;47.456;19.120;2023-05-23T07:39:14;99944.81;;;22.96;78.49
71567;BME280;59403;47.456;19.120;2023-05-23T07:41:46;99950.56;;;22.99;78.01
71567;BME280;59403;47.456;19.120;2023-05-23T07:44:13;99942.63;;;22.76;78.65
71567;BME280;59403;47.456;19.120;2023-05-23T07:46:42;99941.41;;;23.00;79.22
71567;BME280;59403;47.456;19.120;2023-05-23T07:49:08;99935.84;;;23.28;79.54
71567;BME280;59403;47.456;19.120;2023-05-23T07:51:35;99943.38;;;23.26;75.30
71567;BME280;59403;47.456;19.120;2023-05-23T07:54:02;99942.09;;;23.50;73.76
71567;BME280;59403;47.456;19.120;2023-05-23T07:56:29;99945.28;;;23.47;73.37
71567;BME280;59403;47.456;19.120;2023-05-23T07:58:56;99949.19;;;23.56;71.52
71567;BME280;59403;47.456;19.120;2023-05-23T08:01:24;99941.75;;;23.69;71.24
71567;BME280;59403;47.456;19.120;2023-05-23T08:03:52;99943.41;;;23.70;70.39
71567;BME280;59403;47.456;19.120;2023-05-23T08:06:20;99948.09;;;23.79;69.41
71567;BME280;59403;47.456;19.120;2023-05-23T08:08:47;99938.81;;;23.70;65.58
71567;BME280;59403;47.456;19.120;2023-05-23T08:11:13;99936.25;;;24.07;67.29
71567;BME280;59403;47.456;19.120;2023-05-23T08:13:40;99933.16;;;23.98;66.52
71567;BME280;59403;47.456;19.120;2023-05-23T08:16:07;99932.22;;;24.09;68.44
71567;BME280;59403;47.456;19.120;2023-05-23T08:18:34;99926.00;;;24.09;68.12
71567;BME280;59403;47.456;19.120;2023-05-23T08:21:03;99934.25;;;24.24;68.04
71567;BME280;59403;47.456;19.120;2023-05-23T08:23:29;99938.94;;;24.33;69.06
71567;BME280;59403;47.456;19.120;2023-05-23T08:25:56;99942.59;;;24.17;69.48
71567;BME280;59403;47.456;19.120;2023-05-23T08:28:23;99943.44;;;24.23;68.35
71567;BME280;59403;47.456;19.120;2023-05-23T08:30:50;99937.31;;;24.32;65.94
71567;BME280;59403;47.456;19.120;2023-05-23T08:33:18;99947.00;;;24.55;65.33
71567;BME280;59403;47.456;19.120;2023-05-23T08:35:45;99940.91;;;24.69;65.39
71567;BME280;59403;47.456;19.120;2023-05-23T08:38:13;99941.22;;;24.78;63.30
71567;BME280;59403;47.456;19.120;2023-05-23T08:40:45;99945.97;;;24.66;65.83
71567;BME280;59403;47.456;19.120;2023-05-23T08:43:15;99950.25;;;24.89;66.78
71567;BME280;59403;47.456;19.120;2023-05-23T08:45:42;99947.72;;;24.77;64.36
71567;BME280;59403;47.456;19.120;2023-05-23T08:48:12;99947.00;;;24.92;60.51
71567;BME280;59403;47.456;19.120;2023-05-23T08:50:41;99943.47;;;24.86;62.74
71567;BME280;59403;47.456;19.120;2023-05-23T08:53:08;99931.31;;;24.94;63.07
71567;BME280;59403;47.456;19.120;2023-05-23T08:55:37;99934.34;;;25.02;63.79
71567;BME280;59403;47.456;19.120;2023-05-23T08:58:04;99933.94;;;25.30;65.14
71567;BME280;59403;47.456;19.120;2023-05-23T09:00:32;99932.87;;;25.31;65.03
71567;BME280;59403;47.456;19.120;2023-05-23T09:02:59;99937.50;;;25.36;64.44
71567;BME280;59403;47.456;19.120;2023-05-23T09:05:26;99936.25;;;25.48;63.99
71567;BME280;59403;47.456;19.120;2023-05-23T09:07:53;99930.59;;;25.60;63.96
71567;BME280;59403;47.456;19.120;2023-05-23T09:10:21;99930.81;;;25.43;60.81
71567;BME280;59403;47.456;19.120;2023-05-23T09:12:49;99932.81;;;25.68;62.29
71567;BME280;59403;47.456;19.120;2023-05-23T09:15:16;99941.75;;;25.78;65.56
71567;BME280;59403;47.456;19.120;2023-05-23T09:17:43;99932.00;;;25.83;61.42
71567;BME280;59403;47.456;19.120;2023-05-23T09:20:13;99931.41;;;25.65;60.76
71567;BME280;59403;47.456;19.120;2023-05-23T09:22:40;99938.56;;;25.97;61.60
71567;BME280;59403;47.456;19.120;2023-05-23T09:25:07;99935.34;;;26.05;61.26
71567;BME280;59403;47.456;19.120;2023-05-23T09:27:34;99931.84;;;26.09;60.61
71567;BME280;59403;47.456;19.120;2023-05-23T09:30:07;99941.81;;;25.99;61.06
71567;BME280;59403;47.456;19.120;2023-05-23T09:32:34;99932.31;;;25.91;60.27
71567;BME280;59403;47.456;19.120;2023-05-23T09:35:02;99926.13;;;26.26;60.34
71567;BME280;59403;47.456;19.120;2023-05-23T09:37:31;99924.53;;;26.15;60.14
71567;BME280;59403;47.456;19.120;2023-05-23T09:39:59;99920.97;;;26.34;60.36
71567;BME280;59403;47.456;19.120;2023-05-23T09:42:31;99920.69;;;26.11;59.13
71567;BME280;59403;47.456;19.120;2023-05-23T09:44:58;99916.31;;;26.00;58.38
71567;BME280;59403;47.456;19.120;2023-05-23T09:47:27;99916.25;;;25.74;60.89
71567;BME280;59403;47.456;19.120;2023-05-23T09:49:54;99917.28;;;25.53;62.27
71567;BME280;59403;47.456;19.120;2023-05-23T09:52:21;99918.72;;;25.91;61.08
71567;BME280;59403;47.456;19.120;2023-05-23T09:54:48;99922.31;;;26.17;61.55
71567;BME280;59403;47.456;19.120;2023-05-23T09:57:15;99911.47;;;26.12;60.71
71567;BME280;59403;47.456;19.120;2023-05-23T09:59:50;99918.03;;;26.36;61.55
71567;BME280;59403;47.456;19.120;2023-05-23T10:02:28;99919.91;;;26.55;57.07
71567;BME280;59403;47.456;19.120;2023-05-23T10:05:03;99917.19;;;26.35;56.39
71567;BME280;59403;47.456;19.120;2023-05-23T10:07:36;99907.41;;;26.69;55.69
71567;BME280;59403;47.456;19.120;2023-05-23T10:10:08;99914.44;;;26.96;57.38
71567;BME280;59403;47.456;19.120;2023-05-23T10:12:41;99907.31;;;27.15;57.22
71567;BME280;59403;47.456;19.120;2023-05-23T10:15:12;99907.09;;;27.01;57.69
71567;BME280;59403;47.456;19.120;2023-05-23T10:17:58;99900.78;;;27.21;55.75
71567;BME280;59403;47.456;19.120;2023-05-23T10:20:30;99900.03;;;26.90;57.10
71567;BME280;59403;47.456;19.120;2023-05-23T10:22:59;99901.44;;;26.27;58.06
71567;BME280;59403;47.456;19.120;2023-05-23T10:25:27;99901.69;;;26.81;56.48
71567;BME280;59403;47.456;19.120;2023-05-23T10:27:55;99892.47;;;26.82;55.24
71567;BME280;59403;47.456;19.120;2023-05-23T10:30:25;99902.22;;;26.88;54.99
71567;BME280;59403;47.456;19.120;2023-05-23T10:34:53;99889.66;;;27.17;51.59
71567;BME280;59403;47.456;19.120;2023-05-23T10:37:30;99889.66;;;27.17;51.59
71567;BME280;59403;47.456;19.120;2023-05-23T10:43:04;99881.34;;;28.01;49.91
71567;BME280;59403;47.456;19.120;2023-05-23T10:45:39;99881.34;;;28.01;49.91
71567;BME280;59403;47.456;19.120;2023-05-23T10:48:19;99891.41;;;27.57;52.29
71567;BME280;59403;47.456;19.120;2023-05-23T10:51:01;99893.63;;;27.50;50.39
71567;BME280;59403;47.456;19.120;2023-05-23T10:53:30;99877.69;;;27.72;51.06
71567;BME280;59403;47.456;19.120;2023-05-23T10:55:56;99879.25;;;27.88;49.70
71567;BME280;59403;47.456;19.120;2023-05-23T10:58:28;99883.28;;;28.01;51.96
71567;BME280;59403;47.456;19.120;2023-05-23T11:00:59;99872.97;;;27.87;51.24
71567;BME280;59403;47.456;19.120;2023-05-23T11:03:31;99879.91;;;28.14;50.69
71567;BME280;59403;47.456;19.120;2023-05-23T11:06:00;99867.59;;;27.24;50.93
71567;BME280;59403;47.456;19.120;2023-05-23T11:08:28;99859.69;;;27.32;52.90
71567;BME280;59403;47.456;19.120;2023-05-23T11:11:02;99862.66;;;27.36;52.30
71567;BME280;59403;47.456;19.120;2023-05-23T11:13:56;99857.81;;;27.71;51.66
71567;BME280;59403;47.456;19.120;2023-05-23T11:16:29;99857.13;;;28.00;51.07
71567;BME280;59403;47.456;19.120;2023-05-23T11:19:21;99855.56;;;27.93;48.55
71567;BME280;59403;47.456;19.120;2023-05-23T11:21:53;99859.22;;;28.13;50.22
71567;BME280;59403;47.456;19.120;2023-05-23T11:24:20;99847.09;;;27.90;47.33
71567;BME280;59403;47.456;19.120;2023-05-23T11:26:51;99850.56;;;28.06;49.39
71567;BME280;59403;47.456;19.120;2023-05-23T11:29:21;99846.88;;;28.20;48.29
71567;BME280;59403;47.456;19.120;2023-05-23T11:31:48;99846.63;;;28.22;49.09
71567;BME280;59403;47.456;19.120;2023-05-23T11:34:16;99831.28;;;27.97;48.74
71567;BME280;59403;47.456;19.120;2023-05-23T11:36:43;99833.31;;;28.15;49.45
71567;BME280;59403;47.456;19.120;2023-05-23T11:39:12;99834.63;;;27.84;47.34
71567;BME280;59403;47.456;19.120;2023-05-23T11:41:40;99826.81;;;28.11;48.27
71567;BME280;59403;47.456;19.120;2023-05-23T11:44:10;99821.38;;;28.11;47.39
71567;BME280;59403;47.456;19.120;2023-05-23T11:46:39;99807.56;;;28.31;47.34
71567;BME280;59403;47.456;19.120;2023-05-23T11:49:12;99816.22;;;28.38;47.55
71567;BME280;59403;47.456;19.120;2023-05-23T11:51:39;99811.16;;;28.27;48.07
71567;BME280;59403;47.456;19.120;2023-05-23T11:54:06;99809.94;;;28.38;47.87
71567;BME280;59403;47.456;19.120;2023-05-23T11:56:38;99807.47;;;28.13;45.70
71567;BME280;59403;47.456;19.120;2023-05-23T11:59:06;99798.47;;;28.12;47.45
71567;BME280;59403;47.456;19.120;2023-05-23T12:01:36;99798.06;;;28.57;46.19
71567;BME280;59403;47.456;19.120;2023-05-23T12:04:08;99795.06;;;28.30;44.54
71567;BME280;59403;47.456;19.120;2023-05-23T12:06:38;99789.19;;;28.13;45.13
71567;BME280;59403;47.456;19.120;2023-05-23T12:09:05;99780.09;;;28.28;44.75
71567;BME280;59403;47.456;19.120;2023-05-23T12:11:32;99778.00;;;28.20;45.25
71567;BME280;59403;47.456;19.120;2023-05-23T12:14:00;99775.75;;;27.54;45.94
71567;BME280;59403;47.456;19.120;2023-05-23T12:16:30;99776.94;;;26.84;49.73
71567;BME280;59403;47.456;19.120;2023-05-23T12:18:58;99764.75;;;26.62;50.67
71567;BME280;59403;47.456;19.120;2023-05-23T12:21:39;99767.75;;;27.34;48.52
71567;BME280;59403;47.456;19.120;2023-05-23T12:24:13;99759.63;;;27.29;49.72
71567;BME280;59403;47.456;19.120;2023-05-23T12:26:46;99751.97;;;26.72;49.32
71567;BME280;59403;47.456;19.120;2023-05-23T12:29:12;99744.88;;;26.81;50.26
71567;BME280;59403;47.456;19.120;2023-05-23T12:31:40;99750.63;;;27.29;49.03
71567;BME280;59403;47.456;19.120;2023-05-23T12:34:10;99749.34;;;27.60;49.67
71567;BME280;59403;47.456;19.120;2023-05-23T12:36:38;99746.28;;;27.28;48.42
71567;BME280;59403;47.456;19.120;2023-05-23T12:39:07;99742.16;;;27.74;47.31
71567;BME280;59403;47.456;19.120;2023-05-23T12:41:34;99740.09;;;27.94;46.03
71567;BME280;59403;47.456;19.120;2023-05-23T12:44:01;99742.25;;;27.98;48.05
71567;BME280;59403;47.456;19.120;2023-05-23T12:46:29;99733.66;;;28.14;47.62
71567;BME280;59403;47.456;19.120;2023-05-23T12:48:56;99737.13;;;28.20;46.75
71567;BME280;59403;47.456;19.120;2023-05-23T12:51:22;99742.63;;;28.15;46.44
71567;BME280;59403;47.456;19.120;2023-05-23T12:53:51;99731.09;;;28.23;46.07
71567;BME280;59403;47.456;19.120;2023-05-23T12:56:19;99728.59;;;28.03;44.50